createdAt,value
2023-04-07T00:00:23.677Z,100882.41
2023-04-07T00:02:50.636Z,100885.94
2023-04-07T00:05:17.181Z,100881.63
2023-04-07T00:07:55.087Z,100880.59
2023-04-07T00:10:23.536Z,100887.56
2023-04-07T00:12:49.913Z,100877.09
2023-04-07T00:15:16.495Z,100878.63
2023-04-07T00:17:42.886Z,100869.28
2023-04-07T00:20:09.561Z,100867.97
2023-04-07T00:22:35.932Z,100875.97
2023-04-07T00:25:02.283Z,100875.00
2023-04-07T00:27:28.648Z,100877.25
2023-04-07T00:29:55.390Z,100879.91
2023-04-07T00:32:22.616Z,100869.25
2023-04-07T00:34:49.057Z,100866.50
2023-04-07T00:37:15.974Z,100874.50
2023-04-07T00:39:42.302Z,100868.66
2023-04-07T00:42:08.644Z,100870.22
2023-04-07T00:44:35.204Z,100867.53
2023-04-07T00:47:01.707Z,100871.84
2023-04-07T00:49:28.487Z,100871.75
2023-04-07T00:51:56.030Z,100870.03
2023-04-07T00:54:23.907Z,100865.22
2023-04-07T00:56:50.921Z,100860.91
2023-04-07T00:59:17.516Z,100861.69
2023-04-07T01:02:05.690Z,100860.91
2023-04-07T01:04:44.212Z,100860.16
2023-04-07T01:07:48.292Z,100861.50
2023-04-07T01:10:25.225Z,100854.38
2023-04-07T01:13:05.667Z,100856.00
2023-04-07T01:15:34.879Z,100852.47
2023-04-07T01:18:16.675Z,100849.81
2023-04-07T01:20:48.323Z,100849.81
2023-04-07T01:23:27.062Z,100853.06
2023-04-07T01:26:18.425Z,100850.41
2023-04-07T01:29:08.090Z,100851.44
2023-04-07T01:31:37.245Z,100844.16
2023-04-07T01:34:04.090Z,100845.25
2023-04-07T01:36:32.093Z,100845.94
2023-04-07T01:38:59.881Z,100849.28
2023-04-07T01:41:26.943Z,100854.69
2023-04-07T01:43:55.434Z,100856.50
2023-04-07T01:46:23.804Z,100851.88
2023-04-07T01:48:51.457Z,100849.97
2023-04-07T01:51:20.518Z,100850.84
2023-04-07T01:53:48.480Z,100856.06
2023-04-07T01:56:15.714Z,100847.03
2023-04-07T01:58:44.217Z,100841.28
2023-04-07T02:01:15.229Z,100847.81
2023-04-07T02:04:07.768Z,100835.25
2023-04-07T02:06:48.973Z,100844.47
2023-04-07T02:09:20.246Z,100841.22
2023-04-07T02:11:46.725Z,100843.78
2023-04-07T02:14:14.588Z,100845.25
2023-04-07T02:16:55.815Z,100841.88
2023-04-07T02:19:22.581Z,100839.13
2023-04-07T02:21:51.433Z,100833.88
2023-04-07T02:24:21.859Z,100841.81
2023-04-07T02:26:48.584Z,100831.47
2023-04-07T02:29:15.375Z,100839.41
2023-04-07T02:31:43.334Z,100840.19
2023-04-07T02:34:09.788Z,100834.84
2023-04-07T02:36:36.284Z,100841.88
2023-04-07T02:39:03.374Z,100837.41
2023-04-07T02:41:29.771Z,100845.41
2023-04-07T02:43:56.393Z,100839.91
2023-04-07T02:46:23.042Z,100846.94
2023-04-07T02:48:51.493Z,100837.91
2023-04-07T02:51:17.822Z,100837.84
2023-04-07T02:53:44.191Z,100834.78
2023-04-07T02:56:11.338Z,100840.31
2023-04-07T02:58:37.733Z,100841.94
2023-04-07T03:01:04.873Z,100841.94
2023-04-07T03:03:33.570Z,100837.38
2023-04-07T03:06:20.354Z,100840.81
2023-04-07T03:09:07.039Z,100841.84
2023-04-07T03:11:33.452Z,100844.59
2023-04-07T03:14:00.563Z,100847.94
2023-04-07T03:16:28.450Z,100847.94
2023-04-07T03:19:02.751Z,100847.66
2023-04-07T03:21:32.518Z,100846.31
2023-04-07T03:23:58.888Z,100846.22
2023-04-07T03:26:25.301Z,100847.06
2023-04-07T03:28:51.842Z,100844.41
2023-04-07T03:31:19.172Z,100841.09
2023-04-07T03:33:50.225Z,100843.47
2023-04-07T03:36:18.440Z,100851.56
2023-04-07T03:38:47.601Z,100844.41
2023-04-07T03:41:16.356Z,100845.38
2023-04-07T03:43:42.694Z,100856.03
2023-04-07T03:46:10.822Z,100856.97
2023-04-07T03:48:37.495Z,100851.75
2023-04-07T03:51:07.397Z,100851.81
2023-04-07T03:53:34.576Z,100848.13
2023-04-07T03:56:10.162Z,100858.00
2023-04-07T03:58:42.847Z,100865.06
2023-04-07T04:01:13.530Z,100863.25
2023-04-07T04:03:42.911Z,100865.84
2023-04-07T04:06:35.691Z,100865.06
2023-04-07T04:09:14.342Z,100871.94
2023-04-07T04:11:44.918Z,100869.38
2023-04-07T04:14:11.365Z,100872.13
2023-04-07T04:16:37.878Z,100879.25
2023-04-07T04:19:11.354Z,100870.50
2023-04-07T04:21:37.747Z,100876.34
2023-04-07T04:24:04.613Z,100875.47
2023-04-07T04:26:31.164Z,100880.69
2023-04-07T04:29:03.695Z,100872.88
2023-04-07T04:31:30.386Z,100874.59
2023-04-07T04:33:57.154Z,100879.00
2023-04-07T04:36:24.525Z,100886.91
2023-04-07T04:38:55.290Z,100878.22
2023-04-07T04:41:21.843Z,100887.06
2023-04-07T04:43:50.239Z,100892.66
2023-04-07T04:46:21.480Z,100895.19
2023-04-07T04:48:49.094Z,100900.84
2023-04-07T04:51:17.309Z,100898.97
2023-04-07T04:53:47.634Z,100903.44
2023-04-07T04:56:14.106Z,100902.59
2023-04-07T04:58:46.532Z,100901.31
2023-04-07T05:01:21.389Z,100906.25
2023-04-07T05:03:54.424Z,100908.25
2023-04-07T05:06:24.426Z,100906.44
2023-04-07T05:08:52.281Z,100906.44
2023-04-07T05:11:22.691Z,100916.06
2023-04-07T05:13:52.295Z,100915.41
2023-04-07T05:16:18.877Z,100918.94
2023-04-07T05:18:45.406Z,100918.16
2023-04-07T05:21:11.823Z,100928.88
2023-04-07T05:23:38.265Z,100931.91
2023-04-07T05:26:06.149Z,100928.88
2023-04-07T05:28:32.970Z,100933.63
2023-04-07T05:31:05.707Z,100927.53
2023-04-07T05:33:34.531Z,100932.25
2023-04-07T05:36:02.552Z,100932.34
2023-04-07T05:38:30.389Z,100939.56
2023-04-07T05:41:00.349Z,100935.88
2023-04-07T05:43:31.817Z,100936.66
2023-04-07T05:45:58.254Z,100933.88
2023-04-07T05:48:24.963Z,100943.63
2023-04-07T05:50:52.818Z,100941.81
2023-04-07T05:53:19.961Z,100949.03
2023-04-07T05:55:46.640Z,100943.69
2023-04-07T05:58:22.126Z,100948.25
2023-04-07T06:00:51.339Z,100950.84
2023-04-07T06:03:18.793Z,100959.63
2023-04-07T06:05:58.392Z,100959.50
2023-04-07T06:08:25.295Z,100961.44
2023-04-07T06:10:51.649Z,100962.28
2023-04-07T06:13:17.970Z,100973.97
2023-04-07T06:15:44.374Z,100968.63
2023-04-07T06:18:10.804Z,100972.09
2023-04-07T06:20:37.229Z,100976.47
2023-04-07T06:23:03.595Z,100978.34
2023-04-07T06:25:30.297Z,100973.00
2023-04-07T06:27:56.715Z,100982.75
2023-04-07T06:30:23.319Z,100978.28
2023-04-07T06:32:50.562Z,100975.00
2023-04-07T06:35:17.731Z,100983.69
2023-04-07T06:37:44.098Z,100980.75
2023-04-07T06:40:10.479Z,100988.09
2023-04-07T06:42:36.820Z,100983.41
2023-04-07T06:45:14.733Z,100990.50
2023-04-07T06:47:41.129Z,100994.16
2023-04-07T06:50:08.000Z,100993.31
2023-04-07T06:52:34.326Z,100993.22
2023-04-07T06:55:00.740Z,100989.59
2023-04-07T06:57:27.467Z,100998.63
2023-04-07T06:59:53.777Z,101005.59
2023-04-07T07:02:20.573Z,101003.91
2023-04-07T07:04:47.108Z,101007.00
2023-04-07T07:07:13.452Z,101009.72
2023-04-07T07:09:39.778Z,101001.72
2023-04-07T07:12:06.351Z,101005.25
2023-04-07T07:14:32.735Z,101005.44
2023-04-07T07:16:59.051Z,101008.78
2023-04-07T07:19:25.485Z,101010.50
2023-04-07T07:21:51.970Z,101013.41
2023-04-07T07:24:18.290Z,101014.03
2023-04-07T07:26:45.829Z,101017.41
2023-04-07T07:29:12.147Z,101022.56
2023-04-07T07:31:38.509Z,101030.47
2023-04-07T07:34:05.190Z,101027.72
2023-04-07T07:36:32.176Z,101025.03
2023-04-07T07:38:58.536Z,101021.69
2023-04-07T07:41:26.176Z,101025.81
2023-04-07T07:43:52.849Z,101030.19
2023-04-07T07:46:19.209Z,101038.28
2023-04-07T07:48:46.515Z,101038.28
2023-04-07T07:51:13.625Z,101032.53
2023-04-07T07:53:40.025Z,101037.78
2023-04-07T07:56:06.517Z,101039.25
2023-04-07T07:58:32.957Z,101049.91
2023-04-07T08:00:59.301Z,101041.84
2023-04-07T08:03:26.087Z,101053.25
2023-04-07T08:05:52.561Z,101049.59
2023-04-07T08:08:18.934Z,101058.34
2023-04-07T08:10:45.303Z,101062.81
2023-04-07T08:13:11.736Z,101066.28
2023-04-07T08:15:39.411Z,101067.22
2023-04-07T08:18:07.029Z,101070.31
2023-04-07T08:20:34.072Z,101072.97
2023-04-07T08:23:02.032Z,101074.63
2023-04-07T08:25:28.988Z,101075.22
2023-04-07T08:27:55.490Z,101066.28
2023-04-07T08:30:22.343Z,101071.38
2023-04-07T08:32:49.190Z,101070.31
2023-04-07T08:35:15.599Z,101075.75
2023-04-07T08:37:44.058Z,101073.84
2023-04-07T08:40:11.111Z,101082.63
2023-04-07T08:42:42.905Z,101077.19
2023-04-07T08:45:10.099Z,101083.41
2023-04-07T08:47:37.910Z,101083.03
2023-04-07T08:50:09.398Z,101077.88
2023-04-07T08:52:48.741Z,101087.44
2023-04-07T08:55:15.321Z,101094.84
2023-04-07T08:57:42.421Z,101093.72
2023-04-07T09:00:09.862Z,101090.00
2023-04-07T09:02:43.430Z,101101.72
2023-04-07T09:05:10.289Z,101102.31
2023-04-07T09:07:38.305Z,101099.28
2023-04-07T09:10:05.732Z,101103.66
2023-04-07T09:12:33.066Z,101103.56
2023-04-07T09:14:59.944Z,101113.38
2023-04-07T09:17:27.277Z,101112.06
2023-04-07T09:19:57.360Z,101118.38
2023-04-07T09:22:42.150Z,101119.22
2023-04-07T09:25:26.309Z,101117.94
2023-04-07T09:28:01.235Z,101109.91
2023-04-07T09:30:28.720Z,101122.22
2023-04-07T09:32:55.818Z,101117.00
2023-04-07T09:35:23.784Z,101114.00
2023-04-07T09:38:07.688Z,101112.19
2023-04-07T09:40:35.151Z,101115.78
2023-04-07T09:43:03.636Z,101113.69
2023-04-07T09:45:36.582Z,101116.03
2023-04-07T09:48:32.096Z,101114.06
2023-04-07T09:51:06.589Z,101111.16
2023-04-07T09:53:50.289Z,101121.44
2023-04-07T09:56:18.725Z,101122.16
2023-04-07T09:58:47.052Z,101123.09
2023-04-07T10:01:16.477Z,101119.66
2023-04-07T10:03:43.342Z,101120.53
2023-04-07T10:06:10.348Z,101128.34
2023-04-07T10:08:39.275Z,101129.78
2023-04-07T10:11:06.593Z,101132.13
2023-04-07T10:13:35.886Z,101126.53
2023-04-07T10:16:07.036Z,101135.13
2023-04-07T10:18:35.202Z,101133.03
2023-04-07T10:21:03.575Z,101137.19
2023-04-07T10:23:43.612Z,101138.31
2023-04-07T10:26:10.963Z,101136.13
2023-04-07T10:28:41.308Z,101136.72
2023-04-07T10:31:08.149Z,101146.38
2023-04-07T10:33:53.982Z,101152.44
2023-04-07T10:36:21.447Z,101150.25
2023-04-07T10:39:06.493Z,101152.31
2023-04-07T10:41:36.826Z,101157.84
2023-04-07T10:44:04.793Z,101151.91
2023-04-07T10:46:49.400Z,101158.81
2023-04-07T10:49:18.550Z,101157.84
2023-04-07T10:52:14.733Z,101159.09
2023-04-07T10:54:41.397Z,101159.16
2023-04-07T10:57:14.361Z,101165.00
2023-04-07T11:00:11.864Z,101172.50
2023-04-07T11:02:39.810Z,101168.34
2023-04-07T11:05:06.668Z,101173.03
2023-04-07T11:07:49.991Z,101172.25
2023-04-07T11:10:18.916Z,101180.25
2023-04-07T11:12:58.487Z,101173.03
2023-04-07T11:15:24.891Z,101171.81
2023-04-07T11:18:10.900Z,101178.25
2023-04-07T11:20:46.657Z,101183.34
2023-04-07T11:23:14.533Z,101179.81
2023-04-07T11:25:45.668Z,101181.81
2023-04-07T11:28:13.589Z,101180.19
2023-04-07T11:30:46.207Z,101180.44
2023-04-07T11:33:17.561Z,101182.94
2023-04-07T11:35:52.060Z,101183.19
2023-04-07T11:38:18.813Z,101191.03
2023-04-07T11:40:45.272Z,101190.25
2023-04-07T11:43:25.873Z,101191.81
2023-04-07T11:46:06.357Z,101191.03
2023-04-07T11:48:34.708Z,101198.19
2023-04-07T11:51:02.056Z,101197.06
2023-04-07T11:53:34.229Z,101196.81
2023-04-07T11:56:04.407Z,101204.03
2023-04-07T11:58:30.950Z,101206.13
2023-04-07T12:00:59.160Z,101214.81
2023-04-07T12:03:25.603Z,101212.97
2023-04-07T12:05:52.197Z,101215.16
2023-04-07T12:08:19.574Z,101224.13
2023-04-07T12:10:45.896Z,101218.78
2023-04-07T12:13:13.496Z,101223.84
2023-04-07T12:15:40.051Z,101220.41
2023-04-07T12:18:06.778Z,101230.06
2023-04-07T12:20:33.098Z,101225.59
2023-04-07T12:23:00.142Z,101230.22
2023-04-07T12:25:27.410Z,101228.41
2023-04-07T12:27:53.765Z,101235.75
2023-04-07T12:30:20.084Z,101232.31
2023-04-07T12:32:46.681Z,101226.97
2023-04-07T12:35:13.139Z,101236.88
2023-04-07T12:37:39.500Z,101236.69
2023-04-07T12:40:06.609Z,101242.38
2023-04-07T12:42:32.942Z,101238.94
2023-04-07T12:44:59.334Z,101242.47
2023-04-07T12:47:25.909Z,101245.56
2023-04-07T12:49:52.273Z,101247.38
2023-04-07T12:52:18.703Z,101253.41
2023-04-07T12:54:45.257Z,101257.63
2023-04-07T12:57:11.693Z,101253.84
2023-04-07T12:59:38.012Z,101258.91
2023-04-07T13:02:04.547Z,101260.88
2023-04-07T13:04:31.383Z,101258.06
2023-04-07T13:06:57.865Z,101255.53
2023-04-07T13:09:25.397Z,101266.94
2023-04-07T13:11:51.763Z,101266.22
2023-04-07T13:14:18.099Z,101264.19
2023-04-07T13:16:44.688Z,101262.25
2023-04-07T13:19:11.116Z,101262.09
2023-04-07T13:24:06.884Z,101268.81
2023-04-07T13:26:33.211Z,101269.75
2023-04-07T13:28:59.554Z,101273.00
2023-04-07T13:31:25.900Z,101264.25
2023-04-07T13:33:52.243Z,101267.84
2023-04-07T13:36:20.549Z,101268.91
2023-04-07T13:38:48.155Z,101260.88
2023-04-07T13:41:14.454Z,101268.72
2023-04-07T13:43:40.897Z,101274.75
2023-04-07T13:46:17.125Z,101279.13
2023-04-07T13:48:51.713Z,101277.44
2023-04-07T13:51:18.686Z,101280.88
2023-04-07T13:53:45.700Z,101280.44
2023-04-07T13:56:12.225Z,101282.06
2023-04-07T13:58:38.597Z,101283.09
2023-04-07T14:01:05.091Z,101282.31
2023-04-07T14:03:31.731Z,101289.69
2023-04-07T14:06:01.233Z,101277.06
2023-04-07T14:08:27.815Z,101285.06
2023-04-07T14:10:54.199Z,101279.72
2023-04-07T14:13:20.607Z,101279.84
2023-04-07T14:15:48.283Z,101285.78
2023-04-07T14:18:14.693Z,101283.03
2023-04-07T14:20:41.006Z,101283.63
2023-04-07T14:23:07.334Z,101283.03
2023-04-07T14:25:33.688Z,101286.38
2023-04-07T14:28:00.016Z,101280.94
2023-04-07T14:30:26.448Z,101286.44
2023-04-07T14:32:53.427Z,101284.91
2023-04-07T14:35:20.159Z,101279.56
2023-04-07T14:37:46.481Z,101281.28
2023-04-07T14:40:12.914Z,101287.59
2023-04-07T14:42:39.915Z,101280.16
2023-04-07T14:45:06.784Z,101280.81
2023-04-07T14:47:33.217Z,101289.91
2023-04-07T14:49:59.717Z,101289.31
2023-04-07T14:52:26.189Z,101288.38
2023-04-07T14:54:52.528Z,101290.09
2023-04-07T14:57:19.541Z,101291.19
2023-04-07T14:59:47.029Z,101297.31
2023-04-07T15:02:13.472Z,101296.66
2023-04-07T15:04:40.013Z,101296.53
2023-04-07T15:07:06.382Z,101297.69
2023-04-07T15:09:32.780Z,101308.47
2023-04-07T15:12:00.325Z,101303.66
2023-04-07T15:14:26.762Z,101310.03
2023-04-07T15:16:53.191Z,101309.06
2023-04-07T15:19:19.531Z,101312.00
2023-04-07T15:21:45.911Z,101314.78
2023-04-07T15:24:13.330Z,101313.13
2023-04-07T15:26:41.226Z,101318.63
2023-04-07T15:29:07.541Z,101326.41
2023-04-07T15:31:33.954Z,101322.44
2023-04-07T15:34:00.354Z,101318.94
2023-04-07T15:36:27.234Z,101319.78
2023-04-07T15:38:53.555Z,101317.38
2023-04-07T15:41:19.864Z,101320.03
2023-04-07T15:43:46.555Z,101324.59
2023-04-07T15:46:13.076Z,101327.34
2023-04-07T15:48:39.431Z,101324.66
2023-04-07T15:51:05.859Z,101329.09
2023-04-07T15:53:32.240Z,101330.78
2023-04-07T15:55:58.625Z,101330.63
2023-04-07T15:58:25.041Z,101336.66
2023-04-07T16:00:51.513Z,101331.50
2023-04-07T16:03:18.144Z,101328.91
2023-04-07T16:05:44.606Z,101330.72
2023-04-07T16:08:13.234Z,101331.50
2023-04-07T16:10:40.151Z,101336.66
2023-04-07T16:13:06.485Z,101334.84
2023-04-07T16:15:40.200Z,101343.72
2023-04-07T16:18:11.977Z,101336.22
2023-04-07T16:20:38.360Z,101328.47
2023-04-07T16:23:04.805Z,101334.78
2023-04-07T16:25:31.375Z,101334.66
2023-04-07T16:27:57.986Z,101337.44
2023-04-07T16:30:25.091Z,101342.78
2023-04-07T16:32:51.541Z,101342.63
2023-04-07T16:35:17.853Z,101343.47
2023-04-07T16:37:46.465Z,101343.31
2023-04-07T16:40:13.351Z,101345.28
2023-04-07T16:42:39.790Z,101347.09
2023-04-07T16:45:06.816Z,101346.91
2023-04-07T16:47:33.296Z,101350.63
2023-04-07T16:49:59.754Z,101354.34
2023-04-07T16:52:26.452Z,101345.47
2023-04-07T16:54:52.844Z,101350.88
2023-04-07T16:57:19.165Z,101358.72
2023-04-07T16:59:46.244Z,101365.81
2023-04-07T17:02:16.179Z,101364.00
2023-04-07T17:04:43.602Z,101367.53
2023-04-07T17:07:10.411Z,101373.81
2023-04-07T17:09:36.788Z,101381.84
2023-04-07T17:12:03.700Z,101383.56
2023-04-07T17:14:30.304Z,101379.25
2023-04-07T17:16:56.856Z,101384.59
2023-04-07T17:19:23.519Z,101377.53
2023-04-07T17:21:49.875Z,101387.50
2023-04-07T17:24:16.712Z,101400.97
2023-04-07T17:26:44.365Z,101399.22
2023-04-07T17:29:10.676Z,101404.69
2023-04-07T17:31:37.123Z,101401.13
2023-04-07T17:34:03.719Z,101408.38
2023-04-07T17:36:33.954Z,101406.63
2023-04-07T17:39:01.219Z,101414.91
2023-04-07T17:41:28.351Z,101412.34
2023-04-07T17:43:54.798Z,101420.41
2023-04-07T17:46:22.640Z,101423.94
2023-04-07T17:48:50.608Z,101424.97
2023-04-07T17:51:17.576Z,101423.09
2023-04-07T17:53:44.024Z,101433.00
2023-04-07T17:56:10.399Z,101428.59
2023-04-07T17:58:36.765Z,101426.88
2023-04-07T18:01:03.181Z,101434.97
2023-04-07T18:03:29.919Z,101441.25
2023-04-07T18:05:56.411Z,101440.56
2023-04-07T18:08:23.994Z,101450.78
2023-04-07T18:10:51.519Z,101441.91
2023-04-07T18:13:18.491Z,101451.72
2023-04-07T18:15:45.089Z,101447.41
2023-04-07T18:18:11.438Z,101451.91
2023-04-07T18:20:37.888Z,101459.03
2023-04-07T18:23:05.213Z,101459.19
2023-04-07T18:25:31.532Z,101460.16
2023-04-07T18:27:58.599Z,101457.53
2023-04-07T18:30:24.912Z,101470.91
2023-04-07T18:32:51.312Z,101464.75
2023-04-07T18:35:17.677Z,101467.50
2023-04-07T18:37:44.424Z,101477.31
2023-04-07T18:40:11.402Z,101484.47
2023-04-07T18:42:37.770Z,101485.50
2023-04-07T18:45:04.384Z,101483.69
2023-04-07T18:47:30.866Z,101489.25
2023-04-07T18:49:58.050Z,101488.41
2023-04-07T18:52:25.637Z,101488.47
2023-04-07T18:54:51.994Z,101489.44
2023-04-07T18:57:18.404Z,101498.28
2023-04-07T18:59:44.784Z,101494.03
2023-04-07T19:02:11.421Z,101503.00
2023-04-07T19:04:37.858Z,101506.63
2023-04-07T19:07:04.236Z,101513.06
2023-04-07T19:09:30.626Z,101516.72
2023-04-07T19:11:57.872Z,101515.06
2023-04-07T19:14:24.268Z,101518.59
2023-04-07T19:16:51.842Z,101527.56
2023-04-07T19:19:18.362Z,101524.94
2023-04-07T19:21:44.745Z,101525.88
2023-04-07T19:24:11.210Z,101528.53
2023-04-07T19:26:37.820Z,101527.78
2023-04-07T19:29:04.332Z,101535.78
2023-04-07T19:31:31.205Z,101534.88
2023-04-07T19:33:58.392Z,101539.47
2023-04-07T19:36:25.846Z,101535.06
2023-04-07T19:38:52.240Z,101541.34
2023-04-07T19:41:18.580Z,101548.47
2023-04-07T19:43:45.248Z,101551.13
2023-04-07T19:46:11.815Z,101549.56
2023-04-07T19:48:38.230Z,101546.09
2023-04-07T19:51:07.099Z,101554.13
2023-04-07T19:53:33.784Z,101546.31
2023-04-07T19:56:01.919Z,101554.50
2023-04-07T19:58:28.243Z,101550.06
2023-04-07T20:00:55.022Z,101551.03
2023-04-07T20:03:22.002Z,101557.22
2023-04-07T20:05:48.555Z,101551.94
2023-04-07T20:08:14.934Z,101556.53
2023-04-07T20:10:41.345Z,101565.50
2023-04-07T20:13:09.002Z,101574.47
2023-04-07T20:15:35.337Z,101563.00
2023-04-07T20:18:01.713Z,101566.72
2023-04-07T20:20:28.100Z,101565.88
2023-04-07T20:22:54.444Z,101563.22
2023-04-07T20:25:20.954Z,101573.06
2023-04-07T20:27:49.797Z,101565.97
2023-04-07T20:30:16.327Z,101581.03
2023-04-07T20:32:43.482Z,101582.81
2023-04-07T20:35:11.620Z,101582.88
2023-04-07T20:37:37.977Z,101579.50
2023-04-07T20:40:04.837Z,101584.06
2023-04-07T20:42:31.303Z,101592.13
2023-04-07T20:45:03.302Z,101590.31
2023-04-07T20:47:31.095Z,101594.88
2023-04-07T20:49:58.583Z,101587.00
2023-04-07T20:52:26.573Z,101591.63
2023-04-07T20:54:53.111Z,101591.78
2023-04-07T20:57:19.475Z,101591.81
2023-04-07T20:59:45.977Z,101599.03
2023-04-07T21:02:12.426Z,101601.91
2023-04-07T21:04:38.887Z,101604.78
2023-04-07T21:07:05.246Z,101596.13
2023-04-07T21:09:31.618Z,101603.47
2023-04-07T21:11:58.017Z,101601.97
2023-04-07T21:14:24.335Z,101596.88
2023-04-07T21:16:52.037Z,101597.28
2023-04-07T21:19:18.336Z,101599.25
2023-04-07T21:21:44.711Z,101602.16
2023-04-07T21:24:11.033Z,101591.91
2023-04-07T21:26:37.341Z,101608.16
2023-04-07T21:29:03.694Z,101606.59
2023-04-07T21:31:30.105Z,101609.34
2023-04-07T21:33:56.465Z,101617.41
2023-04-07T21:36:22.789Z,101609.59
2023-04-07T21:38:51.838Z,101602.75
2023-04-07T21:41:18.387Z,101605.66
2023-04-07T21:43:44.956Z,101607.03
2023-04-07T21:46:11.466Z,101612.50
2023-04-07T21:48:37.837Z,101611.72
2023-04-07T21:51:04.264Z,101610.16
2023-04-07T21:53:30.595Z,101601.53
2023-04-07T21:55:57.497Z,101611.50
2023-04-07T21:58:23.916Z,101612.56
2023-04-07T22:00:50.324Z,101611.88
2023-04-07T22:03:16.976Z,101613.19
2023-04-07T22:05:43.444Z,101619.91
2023-04-07T22:08:09.753Z,101620.97
2023-04-07T22:10:36.333Z,101621.16
2023-04-07T22:13:02.766Z,101621.25
2023-04-07T22:15:29.251Z,101621.44
2023-04-07T22:17:56.388Z,101624.22
2023-04-07T22:20:23.253Z,101615.81
2023-04-07T22:22:49.608Z,101622.22
2023-04-07T22:25:16.186Z,101622.50
2023-04-07T22:27:42.521Z,101628.75
2023-04-07T22:30:10.705Z,101628.09
2023-04-07T22:32:37.203Z,101634.28
2023-04-07T22:35:03.820Z,101630.09
2023-04-07T22:37:30.260Z,101633.81
2023-04-07T22:39:56.588Z,101617.84
2023-04-07T22:42:22.929Z,101629.53
2023-04-07T22:44:49.249Z,101626.97
2023-04-07T22:47:15.875Z,101635.06
2023-04-07T22:49:42.330Z,101635.19
2023-04-07T22:52:08.690Z,101634.41
2023-04-07T22:54:35.357Z,101632.78
2023-04-07T22:57:02.309Z,101632.16
2023-04-07T22:59:28.625Z,101639.47
2023-04-07T23:01:57.185Z,101635.31
2023-04-07T23:04:24.623Z,101639.22
2023-04-07T23:06:50.993Z,101643.09
2023-04-07T23:09:17.319Z,101639.69
2023-04-07T23:11:45.984Z,101640.78
2023-04-07T23:14:12.875Z,101648.06
2023-04-07T23:16:39.285Z,101646.41
2023-04-07T23:19:11.178Z,101649.22
2023-04-07T23:21:38.787Z,101649.28
2023-04-07T23:24:05.409Z,101647.44
2023-04-07T23:26:31.887Z,101649.22
2023-04-07T23:28:58.212Z,101654.53
2023-04-07T23:31:24.643Z,101653.72
2023-04-07T23:33:51.015Z,101652.84
2023-04-07T23:36:17.467Z,101662.72
2023-04-07T23:38:43.922Z,101656.38
2023-04-07T23:41:10.285Z,101661.69
2023-04-07T23:43:36.655Z,101666.22
2023-04-07T23:46:03.166Z,101662.91
2023-04-07T23:48:30.963Z,101671.13
2023-04-07T23:50:59.594Z,101670.44
2023-04-07T23:53:25.998Z,101670.69
2023-04-07T23:55:52.315Z,101673.59
2023-04-07T23:58:18.673Z,101677.13
